Time;durP1;ratioP1;P1;durP2;ratioP2;P2;SDS_P1;SDS_P2;PMS_P1;PMS_P2;Temp;Humidity;BMP_temperature;BMP_pressure;BME280_temperature;BME280_humidity;BME280_pressure;Samples;Min_cycle;Max_cycle;Signal;HPM_P1;HPM_P2
2022/12/17 13:08:09;;;;;;;25.83;17.23;;;-1.50;99.90;;;;;;5104238;28;20922;-84
2022/12/17 13:10:36;;;;;;;31.37;19.33;;;-1.80;99.90;;;;;;5105273;28;20424;-84
2022/12/17 13:13:35;;;;;;;28.37;18.23;;;-1.80;99.90;;;;;;5107457;28;20421;-84
2022/12/17 13:16:22;;;;;;;27.00;17.10;;;-1.90;99.90;;;;;;5101659;28;20442;-85
2022/12/17 13:18:59;;;;;;;27.07;16.97;;;-1.90;99.90;;;;;;5106809;28;20409;-83
2022/12/17 13:21:26;;;;;;;26.20;18.30;;;-1.80;99.90;;;;;;5103646;28;20536;-82
2022/12/17 13:23:52;;;;;;;22.97;15.47;;;-1.60;99.90;;;;;;5098067;28;20468;-82
2022/12/17 13:26:44;;;;;;;28.07;16.53;;;-1.80;99.90;;;;;;5103138;28;20900;-83
2022/12/17 13:29:34;;;;;;;27.73;17.17;;;-1.80;99.90;;;;;;5101904;28;20422;-82
2022/12/17 13:31:59;;;;;;;27.60;17.67;;;-1.90;99.90;;;;;;5101805;28;20417;-82
2022/12/17 13:34:44;;;;;;;26.77;18.17;;;-2.00;99.90;;;;;;5103473;28;20410;-82
2022/12/17 13:37:14;;;;;;;27.67;18.03;;;-1.90;99.90;;;;;;5103170;28;20711;-82
2022/12/17 13:40:09;;;;;;;27.97;18.67;;;-1.70;99.90;;;;;;5102269;28;20397;-82
2022/12/17 13:42:35;;;;;;;28.07;18.90;;;-1.60;99.90;;;;;;5106100;28;20473;-83
2022/12/17 13:45:01;;;;;;;31.07;19.13;;;-1.60;99.90;;;;;;5107198;28;20394;-82
2022/12/17 13:47:30;;;;;;;28.10;19.17;;;-1.60;99.90;;;;;;5107069;28;20499;-83
2022/12/17 13:49:58;;;;;;;28.77;18.67;;;-1.70;99.90;;;;;;5106266;28;20458;-81
2022/12/17 13:52:26;;;;;;;30.67;19.80;;;-1.90;99.90;;;;;;5105101;28;20425;-84
2022/12/17 13:54:53;;;;;;;32.13;19.23;;;-1.90;99.90;;;;;;5105864;28;20414;-84
2022/12/17 13:57:21;;;;;;;29.87;19.80;;;-2.10;99.90;;;;;;5106151;28;20474;-84
2022/12/17 13:59:52;;;;;;;31.03;19.47;;;-2.30;99.90;;;;;;5106983;28;20469;-85
2022/12/17 14:02:33;;;;;;;32.43;20.00;;;-2.30;99.90;;;;;;5106702;28;20475;-85
2022/12/17 14:05:01;;;;;;;30.50;19.97;;;-2.30;99.90;;;;;;5108031;28;20879;-85
2022/12/17 14:07:28;;;;;;;34.57;19.13;;;-2.30;99.90;;;;;;5106717;28;20508;-83
2022/12/17 14:09:54;;;;;;;30.87;19.27;;;-2.40;99.90;;;;;;5108919;28;20507;-85
2022/12/17 14:12:24;;;;;;;29.47;19.83;;;-2.50;99.90;;;;;;5108473;28;20411;-85
2022/12/17 14:14:53;;;;;;;30.97;19.87;;;-2.50;99.90;;;;;;5107293;28;20410;-85
2022/12/17 14:17:22;;;;;;;37.47;21.37;;;-2.50;99.90;;;;;;5107746;28;20437;-85
2022/12/17 14:19:55;;;;;;;30.47;19.37;;;-2.60;99.90;;;;;;5105339;28;20417;-85
2022/12/17 14:22:51;;;;;;;35.23;20.50;;;-2.60;99.90;;;;;;5087694;28;20437;-84
2022/12/17 14:25:20;;;;;;;31.80;19.10;;;-2.50;99.90;;;;;;5083823;28;20501;-83
2022/12/17 14:28:01;;;;;;;29.90;18.77;;;-2.60;99.90;;;;;;5103897;28;20457;-83
2022/12/17 14:30:39;;;;;;;31.10;18.40;;;-2.60;99.90;;;;;;5106569;28;20414;-83
2022/12/17 14:33:27;;;;;;;35.47;19.47;;;-2.70;99.90;;;;;;5109481;28;20406;-83
2022/12/17 14:35:55;;;;;;;32.17;20.13;;;-2.70;99.90;;;;;;5117728;28;20482;-83
2022/12/17 14:38:21;;;;;;;30.43;18.53;;;-2.70;99.90;;;;;;5114174;28;20437;-83
2022/12/17 14:40:47;;;;;;;32.83;19.30;;;-2.70;99.90;;;;;;5105404;28;20414;-83
2022/12/17 14:43:14;;;;;;;31.97;18.97;;;-2.70;99.90;;;;;;5103414;28;20795;-83
2022/12/17 14:51:39;;;;;;;36.23;21.60;;;-2.80;99.90;;;;;;5102325;28;20397;-82
2022/12/17 14:54:12;;;;;;;36.60;19.97;;;-2.80;99.90;;;;;;5101158;28;20438;-82
2022/12/17 14:56:40;;;;;;;33.53;19.30;;;-2.90;99.90;;;;;;5101454;28;20436;-83
2022/12/17 14:59:32;;;;;;;33.37;18.93;;;-2.90;99.90;;;;;;5099787;28;20899;-83
2022/12/17 15:02:22;;;;;;;31.83;18.80;;;-2.90;99.90;;;;;;5098803;28;20410;-82
2022/12/17 15:04:50;;;;;;;35.93;19.00;;;-3.00;99.90;;;;;;5101118;28;20925;-82
2022/12/17 15:07:23;;;;;;;41.67;19.77;;;-3.10;99.90;;;;;;5100566;28;20457;-82
2022/12/17 15:09:51;;;;;;;36.60;19.13;;;-3.20;99.90;;;;;;5099825;28;20393;-82
2022/12/17 15:12:18;;;;;;;41.17;19.73;;;-3.30;99.90;;;;;;5098520;28;20418;-83
2022/12/17 15:14:45;;;;;;;38.13;20.73;;;-3.40;99.90;;;;;;5098009;28;20414;-82
2022/12/17 15:17:11;;;;;;;42.90;20.70;;;-3.50;99.90;;;;;;5099898;28;20426;-82
2022/12/17 15:19:36;;;;;;;36.50;19.20;;;-2.90;99.90;;;;;;5098174;28;20465;-82
2022/12/17 15:22:03;;;;;;;33.47;19.37;;;-3.50;99.90;;;;;;5097985;28;20180;-82
2022/12/17 15:24:29;;;;;;;34.33;18.27;;;-3.70;99.90;;;;;;5097883;28;20273;-82
2022/12/17 15:26:55;;;;;;;45.30;19.87;;;-3.60;99.90;;;;;;5097061;28;20794;-83
2022/12/17 15:29:20;;;;;;;34.17;18.77;;;-3.60;99.90;;;;;;5098558;28;20178;-83
2022/12/17 15:31:46;;;;;;;30.77;17.73;;;-3.80;99.90;;;;;;5099046;28;20208;-83
2022/12/17 15:34:12;;;;;;;33.40;18.07;;;-3.60;99.90;;;;;;5097748;28;20192;-83
2022/12/17 15:36:37;;;;;;;37.57;18.63;;;-4.00;99.90;;;;;;5096704;28;20206;-83
2022/12/17 15:39:05;;;;;;;33.57;18.20;;;-3.00;99.90;;;;;;5097663;28;20198;-83
2022/12/17 15:44:15;;;;;;;31.93;17.77;;;-4.20;99.90;;;;;;5098502;28;20481;-82
2022/12/17 15:46:41;;;;;;;35.57;18.03;;;-4.30;99.90;;;;;;5097186;28;20440;-81
2022/12/17 15:49:06;;;;;;;34.47;18.33;;;-4.30;99.90;;;;;;5102366;28;20189;-81
2022/12/17 15:51:32;;;;;;;32.87;18.00;;;-4.40;99.90;;;;;;5104927;28;20204;-82
2022/12/17 15:53:58;;;;;;;36.17;19.27;;;-4.40;99.90;;;;;;5103431;28;20180;-81
2022/12/17 15:56:26;;;;;;;38.07;21.33;;;-4.30;99.90;;;;;;5100056;28;20633;-81
2022/12/17 15:58:52;;;;;;;42.50;22.03;;;-4.30;99.90;;;;;;5101753;28;20178;-81
2022/12/17 16:01:18;;;;;;;40.13;20.83;;;-4.30;99.90;;;;;;5100608;28;20881;-82
2022/12/17 16:03:44;;;;;;;43.80;21.40;;;-4.40;99.90;;;;;;5099837;28;20504;-82
2022/12/17 16:06:10;;;;;;;42.80;21.67;;;-4.50;99.90;;;;;;5099332;28;20464;-82
2022/12/17 16:08:37;;;;;;;33.53;19.53;;;-4.50;99.90;;;;;;5099941;28;20548;-82
2022/12/17 16:11:08;;;;;;;44.67;22.00;;;-4.60;99.90;;;;;;5100517;28;20243;-82
2022/12/17 16:13:34;;;;;;;38.80;19.33;;;-4.70;99.90;;;;;;5099399;28;20440;-83
2022/12/17 16:16:00;;;;;;;34.73;17.43;;;-4.70;99.90;;;;;;5114291;28;20447;-80
2022/12/17 16:18:25;;;;;;;32.37;18.30;;;-4.60;99.90;;;;;;5115334;28;20420;-80
2022/12/17 16:20:51;;;;;;;38.77;19.43;;;-4.60;99.90;;;;;;5109832;28;20181;-81
2022/12/17 16:23:18;;;;;;;34.20;16.93;;;-4.00;99.90;;;;;;5096468;28;20564;-78
2022/12/17 16:25:43;;;;;;;32.40;17.17;;;-4.60;99.90;;;;;;5098424;28;20514;-81
2022/12/17 16:28:09;;;;;;;33.13;16.37;;;-4.50;99.90;;;;;;5097935;28;20420;-81
2022/12/17 16:30:35;;;;;;;29.90;16.77;;;-4.50;99.90;;;;;;5099174;28;20196;-81
2022/12/17 16:33:00;;;;;;;33.77;17.07;;;-4.50;99.90;;;;;;5098958;28;20196;-80
2022/12/17 16:35:29;;;;;;;29.57;17.27;;;-4.50;99.90;;;;;;5100677;28;20187;-81
2022/12/17 16:37:55;;;;;;;25.73;15.13;;;-4.50;99.90;;;;;;5097443;28;20198;-81
2022/12/17 16:40:21;;;;;;;34.90;17.20;;;-4.50;99.90;;;;;;5098912;28;20966;-80
2022/12/17 16:42:47;;;;;;;35.07;19.37;;;-4.40;99.90;;;;;;5100072;28;20252;-81
2022/12/17 16:45:13;;;;;;;34.23;18.80;;;-4.50;99.90;;;;;;5099573;28;20417;-81
2022/12/17 16:47:38;;;;;;;30.73;17.17;;;-4.20;99.90;;;;;;5102421;28;20199;-81
2022/12/17 16:50:04;;;;;;;29.43;16.77;;;-4.50;99.90;;;;;;5103967;28;20178;-82
2022/12/17 16:52:30;;;;;;;30.63;16.33;;;-4.50;99.90;;;;;;5103831;28;20187;-83
2022/12/17 16:54:56;;;;;;;28.80;15.70;;;-4.50;99.90;;;;;;5101064;28;20427;-81
2022/12/17 16:57:21;;;;;;;31.47;16.60;;;-4.50;99.90;;;;;;5099565;28;20304;-80
2022/12/17 16:59:47;;;;;;;38.40;17.60;;;-4.50;99.90;;;;;;5098973;28;20188;-82
2022/12/17 17:02:14;;;;;;;37.17;18.40;;;-4.50;99.90;;;;;;5099263;28;20182;-82
2022/12/17 17:04:40;;;;;;;33.00;16.53;;;-4.40;99.90;;;;;;5098555;28;20635;-83
2022/12/17 17:07:06;;;;;;;32.27;17.80;;;-4.40;99.90;;;;;;5099653;28;20419;-83
2022/12/17 17:09:31;;;;;;;31.90;16.90;;;-4.40;99.90;;;;;;5097759;28;20170;-83
2022/12/17 17:12:00;;;;;;;30.40;16.63;;;-4.40;99.90;;;;;;5096874;28;20665;-83
2022/12/17 17:14:26;;;;;;;26.30;14.17;;;-4.50;99.90;;;;;;5098600;28;20170;-83
2022/12/17 17:16:52;;;;;;;26.60;16.00;;;-4.70;99.90;;;;;;5098914;28;20530;-83
2022/12/17 17:19:18;;;;;;;27.23;15.77;;;-4.70;99.90;;;;;;5098278;28;20447;-84
2022/12/17 17:21:52;;;;;;;24.67;14.40;;;-4.70;99.90;;;;;;5099609;28;20189;-84
2022/12/17 17:24:25;;;;;;;23.50;13.13;;;-4.70;99.90;;;;;;5098161;28;20474;-83
2022/12/17 17:26:52;;;;;;;27.27;14.60;;;-4.60;99.90;;;;;;5099022;28;20464;-83
2022/12/17 17:29:18;;;;;;;28.13;15.97;;;-4.20;99.90;;;;;;5098237;28;20778;-83
2022/12/17 17:31:44;;;;;;;26.67;14.87;;;-4.60;99.90;;;;;;5099672;28;20408;-83
2022/12/17 17:34:11;;;;;;;30.23;14.87;;;-4.60;99.90;;;;;;5098409;28;20427;-83
2022/12/17 17:36:38;;;;;;;27.87;14.77;;;-4.60;99.90;;;;;;5100454;28;20208;-83
2022/12/17 17:39:04;;;;;;;29.10;15.00;;;-4.50;99.90;;;;;;5100961;28;20838;-83
2022/12/17 17:41:32;;;;;;;28.70;16.33;;;-3.60;99.90;;;;;;5113035;28;20426;-84
2022/12/17 17:44:10;;;;;;;29.70;15.10;;;-4.50;99.90;;;;;;5108008;28;20447;-84
2022/12/17 17:46:35;;;;;;;28.40;14.97;;;-4.50;99.90;;;;;;5101752;28;20792;-84
2022/12/17 17:49:03;;;;;;;31.57;15.17;;;-4.50;99.90;;;;;;5102498;28;20405;-84
2022/12/17 17:51:31;;;;;;;25.63;13.77;;;-4.40;99.90;;;;;;5100155;28;20582;-83
2022/12/17 17:53:59;;;;;;;27.87;15.43;;;-4.20;99.90;;;;;;5101511;28;20403;-84
2022/12/17 17:56:28;;;;;;;29.63;16.70;;;-4.30;99.90;;;;;;5102328;28;20432;-83
2022/12/17 17:59:06;;;;;;;30.47;15.20;;;-4.20;99.90;;;;;;5106794;28;20484;-83
2022/12/17 18:01:34;;;;;;;24.73;14.10;;;-3.80;99.90;;;;;;5117200;28;20395;-83
2022/12/17 18:04:05;;;;;;;24.07;14.00;;;-4.30;99.90;;;;;;5113651;28;20533;-83
2022/12/17 18:06:31;;;;;;;22.27;13.10;;;-4.40;99.90;;;;;;5098119;28;20954;-83
2022/12/17 18:08:58;;;;;;;29.63;15.40;;;-4.40;99.90;;;;;;5099918;28;20495;-80
2022/12/17 18:11:26;;;;;;;24.60;13.97;;;-4.40;99.90;;;;;;5099931;28;20944;-82
2022/12/17 18:13:55;;;;;;;23.20;13.47;;;-4.40;99.90;;;;;;5099425;28;20456;-82
2022/12/17 18:16:31;;;;;;;25.47;13.97;;;-4.40;99.90;;;;;;5098385;28;20941;-82
2022/12/17 18:19:00;;;;;;;28.10;14.47;;;-4.40;99.90;;;;;;5097345;28;20415;-82
